Terminal Aerodrome Forecast
Issued by NWS

Home | Current Version | Previous Version | Text Only | Print | Product List | Glossary On
Versions: 1 2 3 4 5 6 7 8 9 10 11 12 13 14
000
FTUS45 KFGZ 280500
TAFSEZ
TAF
KSEZ 280532Z 2806/0106 VRB05KT P6SM SCT040 OVC060
     FM280800 20008KT 5SM -SHRA BR SCT025 OVC040
     FM281700 21014G22KT 4SM -SHRA BR SCT015 OVC030
     FM010130 24014KT P6SM VCSH SCT020 BKN035=

USA.gov is the U.S. government's official web portal to all federal, state and local government web resources and services.